Time;durP1;ratioP1;P1;durP2;ratioP2;P2;SDS_P1;SDS_P2;PMS_P1;PMS_P2;Temp;Humidity;BMP_temperature;BMP_pressure;BME280_temperature;BME280_humidity;BME280_pressure;Samples;Min_cycle;Max_cycle;Signal;HPM_P1;HPM_P2
2022/12/16 00:01:16;;;;;;;58.38;29.67;;;;;;;-5.76;92.53;99277.55;1676735;83;20993;-75
2022/12/16 00:03:49;;;;;;;54.53;29.10;;;;;;;-5.77;92.48;99275.86;1671338;83;21029;-75
2022/12/16 00:06:17;;;;;;;52.27;27.98;;;;;;;-5.84;92.42;99270.25;1673080;83;20988;-75
2022/12/16 00:08:43;;;;;;;59.33;34.78;;;;;;;-5.84;92.55;99267.71;1700952;83;21061;-75
2022/12/16 00:11:11;;;;;;;55.50;30.52;;;;;;;-5.83;92.42;99265.59;1677750;84;20974;-75
2022/12/16 00:13:39;;;;;;;62.43;34.53;;;;;;;-5.85;92.42;99264.74;1690994;84;21505;-75
2022/12/16 00:16:15;;;;;;;50.60;28.67;;;;;;;-5.81;92.55;99261.38;1668502;83;21009;-75
2022/12/16 00:18:42;;;;;;;54.38;29.87;;;;;;;-5.77;92.55;99266.95;1672579;84;21041;-75
2022/12/16 00:21:09;;;;;;;63.68;33.67;;;;;;;-5.76;92.62;99262.30;1654502;85;21136;-74
2022/12/16 00:23:38;;;;;;;55.28;31.33;;;;;;;-5.74;92.66;99260.63;1660262;84;20933;-75
2022/12/16 00:26:05;;;;;;;58.33;32.98;;;;;;;-5.71;92.69;99264.89;1662273;84;21381;-74
2022/12/16 00:28:32;;;;;;;;;;;;;;;-5.76;92.39;99254.66;1666117;84;20937;-75
2022/12/16 00:30:58;;;;;;;43.60;25.37;;;;;;;-5.77;92.37;99261.87;1656413;84;20155;-74
2022/12/16 00:33:27;;;;;;;57.83;29.43;;;;;;;-5.82;92.29;99262.23;1662878;84;21023;-74
2022/12/16 00:35:56;;;;;;;57.50;30.30;;;;;;;-5.89;92.19;99272.73;1640699;85;21066;-74
2022/12/16 00:38:25;;;;;;;46.80;26.42;;;;;;;-5.99;91.99;99281.53;1652098;84;21623;-75
2022/12/16 00:40:52;;;;;;;48.30;28.10;;;;;;;-5.97;92.20;99282.41;1649556;84;21009;-75
2022/12/16 00:43:19;;;;;;;47.08;25.92;;;;;;;-6.05;91.95;99289.09;1653006;84;21555;-75
2022/12/16 00:45:46;;;;;;;48.38;26.95;;;;;;;-6.03;92.21;99295.05;1649217;84;21038;-75
2022/12/16 00:48:13;;;;;;;42.50;24.32;;;;;;;-5.97;92.22;99292.16;1671151;83;21079;-75
2022/12/16 00:50:39;;;;;;;52.17;26.97;;;;;;;-6.01;91.94;99295.93;1658745;84;21047;-75
2022/12/16 00:53:06;;;;;;;53.40;30.40;;;;;;;-6.04;91.93;99299.28;1658863;84;21123;-74
2022/12/16 00:55:32;;;;;;;54.58;28.73;;;;;;;-6.08;91.78;99303.88;1670069;84;21116;-75
2022/12/16 00:57:59;;;;;;;55.55;30.75;;;;;;;-6.09;91.97;99304.30;1666039;84;21549;-74
2022/12/16 01:00:25;;;;;;;52.50;25.75;;;;;;;-6.04;92.11;99304.80;1662628;84;21063;-75
2022/12/16 01:02:52;;;;;;;46.17;26.17;;;;;;;-6.04;92.10;99314.96;1662406;85;21114;-75
2022/12/16 01:05:25;;;;;;;53.52;28.02;;;;;;;-6.07;92.04;99311.11;1662655;84;22074;-75
2022/12/16 01:07:50;;;;;;;51.85;30.17;;;;;;;-6.06;92.20;99312.81;1638925;85;20997;-75
2022/12/16 01:10:18;;;;;;;62.45;32.83;;;;;;;-6.02;92.29;99312.00;1662281;85;21064;-75
2022/12/16 01:12:45;;;;;;;61.33;32.73;;;;;;;-5.94;92.41;99311.68;1652001;85;21112;-75
2022/12/16 01:15:13;;;;;;;56.30;30.47;;;;;;;-5.89;92.42;99311.29;1661123;85;21677;-75
2022/12/16 01:17:41;;;;;;;49.05;26.17;;;;;;;-5.84;92.21;99310.94;1663066;84;21024;-76
2022/12/16 01:20:09;;;;;;;;;;;;;;;-5.89;92.05;99316.38;1710855;82;21622;-75
2022/12/16 01:22:36;;;;;;;55.63;29.18;;;;;;;-5.97;91.81;99316.73;1694076;83;20165;-75
2022/12/16 01:25:04;;;;;;;56.50;28.47;;;;;;;-6.07;91.74;99318.73;1694665;83;21345;-74
2022/12/16 01:27:30;;;;;;;52.43;26.87;;;;;;;-6.07;91.96;99313.66;1700995;82;21085;-75
2022/12/16 01:29:57;;;;;;;49.60;25.30;;;;;;;-6.09;91.87;99319.55;1703263;83;20977;-75
2022/12/16 01:32:24;;;;;;;56.80;28.70;;;;;;;-6.05;92.06;99311.96;1684107;84;21338;-75
2022/12/16 01:34:52;;;;;;;47.75;26.77;;;;;;;-6.04;92.07;99312.41;1683949;84;21028;-75
2022/12/16 01:37:20;;;;;;;56.28;34.18;;;;;;;-6.05;92.04;99317.05;1698820;83;21520;-75
2022/12/16 01:39:47;;;;;;;60.23;34.58;;;;;;;-6.14;91.87;99313.55;1711808;81;21533;-74
2022/12/16 01:42:21;;;;;;;92.05;50.40;;;;;;;-6.10;92.04;99316.58;1706032;83;21676;-75
2022/12/16 01:44:50;;;;;;;55.30;30.17;;;;;;;-6.09;92.04;99323.36;1708717;81;21044;-74
2022/12/16 01:47:27;;;;;;;54.05;29.10;;;;;;;-6.06;92.02;99338.22;1681429;84;21009;-75
2022/12/16 01:50:06;;;;;;;49.42;27.52;;;;;;;-6.02;92.18;99342.50;1704971;83;21614;-75
2022/12/16 01:52:40;;;;;;;54.60;28.32;;;;;;;-5.91;92.45;99343.46;1674258;84;21085;-74
2022/12/16 01:55:19;;;;;;;46.80;26.97;;;;;;;-5.92;91.98;99344.30;1686438;83;21488;-74
2022/12/16 01:57:57;;;;;;;55.55;37.63;;;;;;;-5.92;92.24;99349.39;1704540;83;21116;-75
2022/12/16 02:00:24;;;;;;;72.17;51.10;;;;;;;-5.86;92.67;99349.46;1685306;83;20981;-74
2022/12/16 02:02:53;;;;;;;60.28;36.63;;;;;;;-5.77;92.54;99343.63;1674627;84;21103;-74
2022/12/16 02:05:22;;;;;;;52.83;30.57;;;;;;;-5.71;92.35;99350.94;1702358;83;21110;-74
2022/12/16 02:07:54;;;;;;;56.37;30.10;;;;;;;-5.74;92.23;99352.17;1695033;83;21002;-74
2022/12/16 02:10:44;;;;;;;65.83;39.53;;;;;;;-5.79;91.99;99351.27;1695485;82;21068;-75
2022/12/16 02:13:27;;;;;;;51.20;30.48;;;;;;;-5.83;92.11;99349.50;1693088;82;21592;-74
2022/12/16 02:16:05;;;;;;;51.68;28.42;;;;;;;-5.85;91.93;99344.41;1699671;83;20997;-75
2022/12/16 02:18:51;;;;;;;47.23;27.17;;;;;;;-5.82;92.14;99348.69;1704232;83;21062;-75
2022/12/16 02:21:33;;;;;;;54.55;28.95;;;;;;;-5.80;92.18;99354.62;1700264;83;21094;-74
2022/12/16 02:24:55;;;;;;;58.63;30.00;;;;;;;-5.84;92.27;99361.78;1698982;83;20964;-74
2022/12/16 02:27:33;;;;;;;53.73;28.65;;;;;;;-5.73;92.29;99356.42;1699277;83;21062;-74
2022/12/16 02:30:08;;;;;;;55.17;29.55;;;;;;;-5.80;91.95;99356.31;1700669;83;21015;-74
2022/12/16 02:33:21;;;;;;;61.13;32.42;;;;;;;-5.87;91.89;99353.70;1638927;86;21027;-75
2022/12/16 02:36:11;;;;;;;68.02;35.30;;;;;;;-5.88;92.08;99356.20;1633432;86;21376;-74
2022/12/16 02:39:06;;;;;;;59.70;31.30;;;;;;;-5.89;92.13;99351.97;1633400;86;21093;-75
2022/12/16 02:41:56;;;;;;;65.15;34.30;;;;;;;-5.87;92.24;99352.85;1640477;85;21469;-74
2022/12/16 02:44:44;;;;;;;62.00;31.50;;;;;;;-5.89;92.00;99357.05;1625489;85;21060;-74
2022/12/16 02:47:11;;;;;;;62.80;31.07;;;;;;;-5.88;92.20;99349.84;1631452;85;21061;-74
2022/12/16 02:49:49;;;;;;;56.05;29.30;;;;;;;-5.89;92.16;99351.55;1637292;85;21006;-75
2022/12/16 02:52:23;;;;;;;57.23;28.25;;;;;;;-5.87;92.17;99358.78;1633036;85;21572;-74
2022/12/16 02:54:55;;;;;;;56.88;27.13;;;;;;;-5.84;92.30;99363.05;1640630;85;21030;-74
2022/12/16 02:57:49;;;;;;;56.95;27.37;;;;;;;-5.85;92.08;99366.45;1638946;85;21022;-74
2022/12/16 03:00:22;;;;;;;64.12;34.40;;;;;;;-5.87;92.10;99363.02;1634224;85;21062;-75
2022/12/16 03:03:08;;;;;;;59.93;31.00;;;;;;;-5.85;92.15;99359.66;1645309;85;21027;-74
2022/12/16 03:05:47;;;;;;;56.40;29.60;;;;;;;-5.76;92.46;99360.20;1636280;85;21634;-75
2022/12/16 03:08:26;;;;;;;53.58;28.42;;;;;;;-5.74;92.24;99344.55;1637686;85;21067;-75
2022/12/16 03:10:56;;;;;;;56.95;29.67;;;;;;;-5.68;92.34;99350.97;1688129;83;21035;-74
2022/12/16 03:13:26;;;;;;;57.53;28.80;;;;;;;-5.74;92.06;99345.82;1702403;82;20978;-74
2022/12/16 03:15:55;;;;;;;52.65;27.87;;;;;;;-5.75;92.13;99352.14;1699575;83;21050;-74
2022/12/16 03:18:24;;;;;;;54.27;26.45;;;;;;;-5.79;92.09;99346.17;1700414;83;21066;-75
2022/12/16 03:21:04;;;;;;;54.18;29.23;;;;;;;-5.77;92.18;99347.05;1674432;83;20981;-75
2022/12/16 03:23:45;;;;;;;53.60;27.85;;;;;;;-5.79;91.98;99341.09;1700903;81;21279;-74
2022/12/16 03:26:17;;;;;;;56.37;30.00;;;;;;;-5.84;91.89;99342.72;1705531;81;20953;-74
2022/12/16 03:28:48;;;;;;;56.65;30.43;;;;;;;-5.81;92.15;99342.75;1680193;83;21097;-74
2022/12/16 03:31:35;;;;;;;58.98;28.30;;;;;;;-5.67;92.59;99341.23;1677081;84;20992;-74
2022/12/16 03:34:13;;;;;;;54.95;30.37;;;;;;;-5.62;92.53;99342.56;1695648;82;21035;-74
2022/12/16 03:36:44;;;;;;;61.92;29.25;;;;;;;-5.71;91.95;99349.67;1686066;82;21086;-74
2022/12/16 03:39:13;;;;;;;53.87;28.65;;;;;;;-5.73;92.10;99345.39;1688336;82;21027;-74
2022/12/16 03:41:42;;;;;;;59.98;30.45;;;;;;;-5.62;92.48;99349.77;1691769;83;21038;-75
2022/12/16 03:44:10;;;;;;;53.20;27.30;;;;;;;-5.59;92.27;99345.56;1687987;82;21106;-74
2022/12/16 03:46:36;;;;;;;;;;;;;;;-5.59;92.13;99345.56;1699406;82;21060;-74
2022/12/16 03:49:03;;;;;;;59.95;30.23;;;;;;;-5.64;92.03;99351.43;1693300;82;20185;-75
2022/12/16 03:51:29;;;;;;;61.48;31.02;;;;;;;-5.65;92.08;99345.92;1691069;82;20971;-74
2022/12/16 03:53:56;;;;;;;58.42;29.05;;;;;;;-5.65;92.37;99348.89;1682930;84;21113;-74
2022/12/16 03:56:23;;;;;;;64.35;32.50;;;;;;;-5.68;92.30;99354.79;1685715;82;21021;-75
2022/12/16 03:58:49;;;;;;;59.30;30.07;;;;;;;-5.56;92.67;99345.17;1692987;82;20946;-74
2022/12/16 04:01:16;;;;;;;63.87;32.40;;;;;;;-5.55;92.71;99353.22;1698147;82;21015;-75
2022/12/16 04:03:43;;;;;;;62.23;32.63;;;;;;;-5.55;92.31;99352.38;1694867;82;20952;-75
2022/12/16 04:06:09;;;;;;;63.20;33.85;;;;;;;-5.57;92.62;99352.77;1687824;82;21636;-75
2022/12/16 04:08:36;;;;;;;63.85;33.02;;;;;;;-5.53;92.68;99348.17;1690591;84;21510;-75
2022/12/16 04:25:04;;;;;;;66.33;31.25;;;;;;;-5.07;93.25;99338.45;1688703;84;21094;-74
2022/12/16 04:27:31;;;;;;;60.43;30.85;;;;;;;-4.96;93.30;99334.31;1696973;83;21109;-75
